Unionville, Nevada
Current Conditions -  °F | °C
As of 12:56 AM on Saturday 25 Oct 2014 (Local Time) from KWMC Reporting Station
Clear Clear  
Wind Chill: 38°   Ceiling: Unl
Heat Index: 41°   Visibility: 10mi
Dew Point: 20°   Wind: 5mph
Humidity: 43%   Direction: 330°NNW
Pressure: 29.96"   Gusts: NA
Location:  40.601°N, 117.984°W
Report Text: KWMC 250756Z AUTO 33004KT 10SM CLR 05/M07 A2996 RMK AO2 SLP119 T00501067 402611017
Loading
Personal Weather Stations






























Interactive Weather Map
Tropical Storm Tracking
New forecast layout! Learn more

10-Day Weather Forecast

Advertisements
Track Severe Weather on mobile